Time;durP1;ratioP1;P1;durP2;ratioP2;P2;SDS_P1;SDS_P2;PMS_P1;PMS_P2;Temp;Humidity;BMP_temperature;BMP_pressure;BME280_temperature;BME280_humidity;BME280_pressure;Samples;Min_cycle;Max_cycle;Signal;HPM_P1;HPM_P2
2023/06/12 00:01:42;;;;;;;12.32;8.40;;;;;;;20.39;73.68;98746.69;4991559;28;20026;-72
2023/06/12 00:04:08;;;;;;;14.20;8.45;;;;;;;20.62;72.85;98737.53;4991513;28;20034;-73
2023/06/12 00:06:35;;;;;;;10.95;8.00;;;;;;;20.81;72.00;98746.66;5005430;28;20033;-72
2023/06/12 00:09:01;;;;;;;14.25;6.85;;;;;;;20.59;73.38;98752.59;4991062;28;20026;-72
2023/06/12 00:11:27;;;;;;;9.70;7.43;;;;;;;20.61;73.55;98747.28;4992641;28;20117;-72
2023/06/12 00:13:52;;;;;;;13.70;7.45;;;;;;;20.70;72.72;98733.41;4995226;28;20064;-72
2023/06/12 00:16:18;;;;;;;10.88;7.95;;;;;;;20.78;72.43;98748.34;4994289;28;20034;-72
2023/06/12 00:18:44;;;;;;;11.25;8.18;;;;;;;20.35;74.22;98743.91;4994968;28;20092;-72
2023/06/12 00:21:11;;;;;;;15.50;9.82;;;;;;;19.58;77.00;98734.31;5003683;28;20095;-72
2023/06/12 00:23:38;;;;;;;11.10;9.38;;;;;;;19.55;76.89;98740.78;4993343;28;20092;-72
2023/06/12 00:26:04;;;;;;;13.60;9.40;;;;;;;19.68;75.50;98732.63;4995135;28;20080;-72
2023/06/12 00:28:30;;;;;;;16.92;9.90;;;;;;;19.81;75.10;98745.09;4994852;28;20030;-72
2023/06/12 00:30:56;;;;;;;13.77;8.73;;;;;;;19.37;76.35;98747.38;4994977;28;20433;-72
2023/06/12 00:33:21;;;;;;;13.13;8.25;;;;;;;19.24;77.54;98740.56;4993869;28;20030;-72
2023/06/12 00:35:47;;;;;;;13.15;9.35;;;;;;;19.27;77.36;98734.06;4993659;28;20038;-72
2023/06/12 00:38:16;;;;;;;12.57;8.23;;;;;;;18.83;79.66;98731.38;4992193;28;20034;-72
2023/06/12 00:40:42;;;;;;;10.30;8.32;;;;;;;18.74;80.07;98728.94;5008272;28;20033;-72
2023/06/12 00:43:09;;;;;;;11.20;9.38;;;;;;;18.42;82.55;98738.34;4994756;28;20456;-72
2023/06/12 00:45:35;;;;;;;11.02;8.85;;;;;;;18.31;83.70;98751.69;4994229;28;20022;-73
2023/06/12 00:48:01;;;;;;;11.73;8.30;;;;;;;18.30;84.06;98745.22;4994430;28;20084;-72
2023/06/12 00:50:27;;;;;;;13.52;9.55;;;;;;;18.45;83.32;98750.84;4991382;28;20402;-72
2023/06/12 00:52:56;;;;;;;11.52;8.57;;;;;;;18.59;82.60;98742.38;4991350;28;20081;-72
2023/06/12 00:55:22;;;;;;;16.85;9.25;;;;;;;18.43;83.61;98745.63;4973996;28;20421;-72
2023/06/12 00:57:48;;;;;;;10.40;8.60;;;;;;;18.50;83.27;98733.47;4990039;28;20042;-73
2023/06/12 01:00:17;;;;;;;12.50;8.43;;;;;;;18.61;82.41;98734.25;4993428;28;20034;-72
2023/06/12 01:02:47;;;;;;;11.50;8.52;;;;;;;18.93;81.16;98747.50;4994393;28;20026;-72
2023/06/12 01:05:13;;;;;;;;;;;;;;;19.14;79.79;98745.84;4992840;28;20041;-72
2023/06/12 01:08:01;;;;;;;12.75;8.65;;;;;;;19.35;78.44;98744.94;4993031;28;20004;-72
2023/06/12 01:10:36;;;;;;;16.42;7.75;;;;;;;19.54;77.72;98753.34;4994307;28;20072;-72
2023/06/12 01:13:03;;;;;;;11.48;8.18;;;;;;;19.42;77.60;98741.25;4992876;28;20026;-72
2023/06/12 01:15:29;;;;;;;25.85;9.18;;;;;;;19.49;77.23;98752.56;5009006;28;20041;-72
2023/06/12 01:17:58;;;;;;;9.25;8.20;;;;;;;19.60;76.90;98754.53;4993902;28;20058;-72
2023/06/12 01:20:24;;;;;;;12.30;7.53;;;;;;;19.77;76.30;98767.78;4992635;28;20037;-72
2023/06/12 01:23:05;;;;;;;11.05;8.25;;;;;;;19.73;76.13;98764.19;5007030;28;20109;-72
2023/06/12 01:25:51;;;;;;;9.38;7.65;;;;;;;19.83;76.03;98765.34;5008949;28;20026;-72
2023/06/12 01:28:25;;;;;;;15.02;8.07;;;;;;;19.94;75.11;98770.16;4993657;28;20146;-72
2023/06/12 01:31:13;;;;;;;10.98;7.88;;;;;;;19.96;74.91;98767.72;4993018;28;20034;-72
2023/06/12 01:33:47;;;;;;;9.55;8.05;;;;;;;19.92;74.68;98762.06;4993891;28;20105;-72
2023/06/12 01:36:19;;;;;;;14.40;8.80;;;;;;;19.99;74.65;98775.41;4992210;28;20030;-72
2023/06/12 01:38:53;;;;;;;11.98;8.63;;;;;;;20.03;74.22;98781.84;4991452;28;20053;-72
2023/06/12 01:41:21;;;;;;;11.30;8.50;;;;;;;19.88;74.50;98776.25;4993647;28;20022;-72
2023/06/12 01:43:46;;;;;;;8.68;7.75;;;;;;;19.91;74.33;98768.94;5008766;28;20068;-72
2023/06/12 01:46:12;;;;;;;14.27;8.43;;;;;;;19.81;74.75;98773.44;4993557;28;20031;-72
2023/06/12 01:48:39;;;;;;;14.73;8.38;;;;;;;19.95;74.36;98769.75;4993290;28;20453;-72
2023/06/12 01:51:04;;;;;;;11.20;7.55;;;;;;;19.80;74.87;98774.69;4993527;28;20552;-72
2023/06/12 01:53:29;;;;;;;11.90;8.35;;;;;;;19.81;74.63;98778.34;4987705;28;20022;-72
2023/06/12 01:55:56;;;;;;;14.35;8.43;;;;;;;19.87;74.24;98766.13;5007631;28;20383;-73
2023/06/12 01:58:21;;;;;;;13.00;8.35;;;;;;;19.80;73.75;98759.69;5008080;28;20038;-72
2023/06/12 02:00:47;;;;;;;21.80;9.95;;;;;;;19.66;74.91;98769.09;4990728;28;20111;-72
2023/06/12 02:03:12;;;;;;;16.70;9.15;;;;;;;19.58;75.38;98774.81;4991674;28;20037;-72
2023/06/12 02:05:38;;;;;;;18.08;8.85;;;;;;;19.70;75.28;98776.38;4991326;28;20077;-73
2023/06/12 02:08:03;;;;;;;20.25;9.80;;;;;;;19.76;74.52;98771.84;4993002;28;20034;-72
2023/06/12 02:10:29;;;;;;;17.83;9.68;;;;;;;19.62;74.74;98771.94;4990292;28;20056;-72
2023/06/12 02:12:54;;;;;;;17.00;9.13;;;;;;;19.57;75.72;98772.41;4991169;28;20034;-72
2023/06/12 02:15:20;;;;;;;11.13;8.82;;;;;;;19.63;75.34;98773.56;4992865;28;20026;-72
2023/06/12 02:17:46;;;;;;;12.40;9.70;;;;;;;19.62;75.39;98772.78;5006734;28;20567;-72
2023/06/12 02:20:11;;;;;;;17.58;9.30;;;;;;;19.70;75.29;98762.19;4993000;28;20037;-72
2023/06/12 02:22:37;;;;;;;16.30;10.45;;;;;;;19.57;75.79;98767.50;4991123;28;20049;-72
2023/06/12 02:25:03;;;;;;;12.27;9.05;;;;;;;19.53;75.77;98765.91;4988892;28;20046;-72
2023/06/12 02:27:29;;;;;;;14.75;9.10;;;;;;;19.60;75.48;98772.34;4972658;28;20045;-72
2023/06/12 02:29:55;;;;;;;17.77;9.63;;;;;;;19.40;75.71;98774.09;4990341;28;20065;-72
2023/06/12 02:32:20;;;;;;;24.60;9.00;;;;;;;19.01;77.70;98767.38;4992723;28;20474;-72
2023/06/12 02:34:47;;;;;;;14.35;9.60;;;;;;;18.77;79.42;98767.00;5007272;28;20030;-72
2023/06/12 02:37:12;;;;;;;17.48;9.55;;;;;;;18.53;81.11;98772.28;4991153;28;20460;-72
2023/06/12 02:39:38;;;;;;;11.88;7.82;;;;;;;18.51;82.78;98781.19;4991373;28;20030;-72
2023/06/12 02:42:03;;;;;;;14.02;9.77;;;;;;;18.59;82.58;98776.34;4992405;28;20112;-72
2023/06/12 02:44:29;;;;;;;18.40;9.88;;;;;;;18.88;81.27;98781.94;4991629;28;20018;-72
2023/06/12 02:46:57;;;;;;;19.20;10.05;;;;;;;18.97;80.44;98789.22;4990666;28;20030;-72
2023/06/12 02:49:25;;;;;;;18.73;10.75;;;;;;;18.55;82.21;98784.00;4992370;28;20600;-72
2023/06/12 02:51:50;;;;;;;11.60;9.95;;;;;;;18.32;83.34;98782.41;4992314;28;20056;-72
2023/06/12 02:54:17;;;;;;;13.77;9.30;;;;;;;18.56;82.00;98788.47;4990392;28;20026;-72
2023/06/12 02:56:46;;;;;;;10.25;8.25;;;;;;;18.75;81.14;98792.09;4992001;28;20637;-72
2023/06/12 02:59:19;;;;;;;17.83;9.15;;;;;;;19.05;80.07;98794.47;4992032;28;20420;-72
2023/06/12 03:01:45;;;;;;;8.45;7.30;;;;;;;19.25;78.75;98801.69;4991168;28;20038;-72
2023/06/12 03:04:21;;;;;;;13.50;8.18;;;;;;;19.31;78.33;98798.03;4992204;28;20026;-72
2023/06/12 03:06:55;;;;;;;13.50;8.05;;;;;;;19.38;77.67;98810.56;4991881;28;20058;-72
2023/06/12 03:09:22;;;;;;;11.38;7.53;;;;;;;19.42;77.58;98805.69;4989536;28;20065;-72
2023/06/12 03:11:50;;;;;;;10.93;8.45;;;;;;;19.50;76.94;98818.63;4992077;28;20075;-72
2023/06/12 03:14:17;;;;;;;11.88;7.55;;;;;;;19.39;77.84;98815.03;4990689;28;20026;-72
2023/06/12 03:16:42;;;;;;;8.60;7.53;;;;;;;19.42;77.58;98817.81;5005284;28;20429;-73
2023/06/12 03:19:08;;;;;;;14.40;8.07;;;;;;;18.94;78.90;98811.50;4991748;28;20042;-72
2023/06/12 03:21:35;;;;;;;17.55;9.38;;;;;;;18.58;82.34;98807.88;4991358;28;20043;-71
2023/06/12 03:24:01;;;;;;;18.13;8.13;;;;;;;18.58;81.91;98794.56;4990983;28;20030;-72
2023/06/12 03:26:30;;;;;;;19.48;9.85;;;;;;;18.77;81.41;98801.81;4990412;28;20404;-72
2023/06/12 03:28:56;;;;;;;21.00;9.00;;;;;;;18.92;80.74;98808.22;4991105;28;20038;-72
2023/06/12 03:31:24;;;;;;;13.13;8.80;;;;;;;19.11;79.68;98803.38;4990125;28;20041;-72
2023/06/12 03:33:50;;;;;;;24.05;9.38;;;;;;;19.13;79.68;98811.47;4973355;28;20069;-72
2023/06/12 03:36:16;;;;;;;17.20;10.27;;;;;;;19.12;79.75;98804.16;4991531;28;20026;-70
2023/06/12 03:38:42;;;;;;;22.10;11.07;;;;;;;19.01;80.42;98807.03;4990420;28;20460;-70
2023/06/12 03:41:07;;;;;;;18.77;9.48;;;;;;;19.19;79.30;98813.47;4991811;28;20033;-70
2023/06/12 03:43:33;;;;;;;17.90;9.60;;;;;;;19.34;78.52;98810.56;4990351;28;20508;-70
2023/06/12 03:45:58;;;;;;;19.45;9.52;;;;;;;19.43;78.08;98807.28;4992305;28;20518;-70
2023/06/12 03:48:23;;;;;;;19.02;9.32;;;;;;;19.40;78.12;98808.13;4995335;28;20030;-70
2023/06/12 03:50:49;;;;;;;11.63;8.75;;;;;;;19.22;78.86;98809.00;4995765;28;20033;-70
2023/06/12 03:53:15;;;;;;;14.38;7.88;;;;;;;19.34;78.35;98802.88;4993716;28;20033;-70
2023/06/12 03:55:41;;;;;;;13.55;7.95;;;;;;;19.43;77.99;98799.59;4995581;28;20551;-70
2023/06/12 03:58:06;;;;;;;9.93;8.35;;;;;;;19.56;77.24;98799.94;4994060;28;20517;-70
2023/06/12 04:00:31;;;;;;;16.90;8.55;;;;;;;19.59;76.67;98796.28;4994153;28;20034;-72
2023/06/12 04:02:57;;;;;;;15.15;7.85;;;;;;;19.55;76.74;98800.34;4989528;28;20489;-73
2023/06/12 04:05:22;;;;;;;11.45;8.05;;;;;;;19.63;76.66;98801.94;4992812;28;20509;-72
2023/06/12 04:07:48;;;;;;;16.42;9.45;;;;;;;19.75;76.08;98809.97;4994025;28;20034;-72
2023/06/12 04:10:13;;;;;;;19.20;8.65;;;;;;;19.73;75.85;98806.75;4983719;28;20103;-73
2023/06/12 04:12:40;;;;;;;16.98;8.20;;;;;;;19.80;75.43;98803.06;4984794;28;20489;-73
2023/06/12 04:15:06;;;;;;;25.10;9.70;;;;;;;19.66;76.25;98801.09;4977451;28;20027;-73
2023/06/12 04:17:31;;;;;;;19.25;8.57;;;;;;;19.61;76.53;98795.88;4993213;28;20504;-72
2023/06/12 04:19:57;;;;;;;15.48;8.30;;;;;;;19.46;77.74;98798.78;5001679;28;20038;-77
2023/06/12 04:22:25;;;;;;;17.52;8.45;;;;;;;19.65;77.00;98805.16;4994914;28;20034;-77
2023/06/12 04:24:53;;;;;;;13.73;7.88;;;;;;;19.26;78.28;98804.13;4995598;28;20045;-76
2023/06/12 04:27:18;;;;;;;11.18;7.15;;;;;;;19.47;77.63;98808.06;4992557;28;20457;-76
2023/06/12 04:29:45;;;;;;;37.00;8.05;;;;;;;19.48;78.21;98798.34;4993736;28;20022;-76
2023/06/12 04:32:13;;;;;;;9.57;7.72;;;;;;;19.63;77.43;98799.09;4993735;28;20527;-77
2023/06/12 04:34:43;;;;;;;9.45;7.75;;;;;;;19.76;76.15;98800.22;4994644;28;20503;-77
2023/06/12 04:37:09;;;;;;;;;;;;;;;20.12;75.05;98804.09;4991534;28;20053;-79
2023/06/12 04:39:38;;;;;;;21.08;9.25;;;;;;;20.28;73.55;98801.56;4993307;28;19913;-77
2023/06/12 04:42:08;;;;;;;12.68;6.88;;;;;;;20.47;72.93;98799.34;4990425;28;20034;-73
2023/06/12 04:44:37;;;;;;;13.15;7.28;;;;;;;19.88;74.78;98800.97;4990917;28;20129;-76
2023/06/12 04:47:14;;;;;;;13.05;7.53;;;;;;;20.14;75.16;98805.28;4991484;28;20026;-77
2023/06/12 04:49:41;;;;;;;10.35;7.25;;;;;;;20.06;76.06;98798.88;5010024;28;20030;-73
2023/06/12 04:52:08;;;;;;;9.52;6.60;;;;;;;20.23;74.86;98809.72;4990702;28;20505;-73
2023/06/12 04:54:36;;;;;;;11.10;7.25;;;;;;;20.73;74.24;98811.28;4993453;28;20058;-73
2023/06/12 04:57:04;;;;;;;9.38;7.15;;;;;;;21.11;71.16;98810.53;4991640;28;20030;-77
2023/06/12 04:59:30;;;;;;;11.35;6.78;;;;;;;20.89;70.14;98811.59;4989178;28;20084;-72
2023/06/12 05:01:57;;;;;;;12.60;6.90;;;;;;;20.92;70.81;98814.81;5007371;28;20034;-80
2023/06/12 05:04:23;;;;;;;11.30;6.60;;;;;;;20.73;70.48;98819.81;5007009;28;20030;-79
2023/06/12 05:06:49;;;;;;;10.43;5.60;;;;;;;20.68;71.36;98818.22;4992451;28;20301;-81
2023/06/12 05:09:14;;;;;;;15.75;6.10;;;;;;;20.98;70.82;98827.31;4991329;28;20104;-78
2023/06/12 05:11:40;;;;;;;8.40;6.07;;;;;;;21.07;69.35;98830.47;4991838;28;20094;-81
2023/06/12 05:14:05;;;;;;;12.20;6.57;;;;;;;21.19;69.02;98820.59;5006849;28;20035;-82
2023/06/12 05:16:32;;;;;;;8.50;6.18;;;;;;;21.12;68.25;98834.88;4986496;28;20023;-81
2023/06/12 05:18:57;;;;;;;8.45;5.13;;;;;;;21.44;67.71;98828.03;5006495;28;20453;-80
2023/06/12 05:21:23;;;;;;;13.30;7.40;;;;;;;21.33;66.03;98833.84;4991593;28;20093;-76
2023/06/12 05:23:48;;;;;;;8.68;5.80;;;;;;;21.41;66.40;98826.03;4991267;28;20038;-78
2023/06/12 05:26:14;;;;;;;9.80;6.53;;;;;;;21.18;67.49;98836.84;4992132;28;20026;-78
2023/06/12 05:28:39;;;;;;;11.25;6.25;;;;;;;21.10;68.27;98840.19;4989858;28;20018;-78
2023/06/12 05:31:05;;;;;;;12.00;6.38;;;;;;;21.00;68.32;98827.72;4988465;28;20033;-77
2023/06/12 05:33:32;;;;;;;8.05;5.97;;;;;;;21.23;68.27;98829.06;4988621;28;20022;-73
2023/06/12 05:35:58;;;;;;;12.38;6.18;;;;;;;21.21;68.05;98820.16;4993603;28;20022;-73
2023/06/12 05:38:25;;;;;;;8.70;6.28;;;;;;;21.38;68.17;98826.88;4984745;28;20058;-73
2023/06/12 05:40:51;;;;;;;11.77;6.75;;;;;;;21.29;67.53;98833.06;4979024;28;20482;-74
2023/06/12 05:43:16;;;;;;;10.80;6.18;;;;;;;21.13;68.31;98825.13;4987611;28;20026;-73
2023/06/12 05:45:41;;;;;;;12.55;6.90;;;;;;;21.00;70.50;98831.34;4991431;28;20019;-76
2023/06/12 05:48:07;;;;;;;17.88;7.75;;;;;;;21.48;68.94;98827.97;4995642;28;20378;-77
2023/06/12 05:50:32;;;;;;;12.23;7.25;;;;;;;21.86;67.46;98828.72;4992843;28;20461;-78
2023/06/12 05:52:58;;;;;;;9.90;6.97;;;;;;;21.84;66.95;98827.53;4993383;28;20049;-78
2023/06/12 05:55:23;;;;;;;8.65;6.35;;;;;;;22.03;66.21;98823.22;4990865;28;20034;-78
2023/06/12 05:57:49;;;;;;;13.82;6.47;;;;;;;22.32;65.33;98821.94;4978147;28;20082;-78
2023/06/12 06:00:15;;;;;;;9.85;6.43;;;;;;;22.44;64.79;98827.84;5006831;28;20033;-75
2023/06/12 06:02:42;;;;;;;12.77;6.85;;;;;;;22.59;64.48;98827.63;4991710;28;20042;-76
2023/06/12 06:05:09;;;;;;;11.07;6.25;;;;;;;22.41;64.68;98837.28;5009770;28;20026;-71
2023/06/12 06:07:36;;;;;;;7.57;5.72;;;;;;;22.01;65.65;98828.50;4997807;28;20037;-77
2023/06/12 06:10:02;;;;;;;8.05;5.88;;;;;;;21.90;64.85;98840.06;4995018;28;20042;-76
2023/06/12 06:12:28;;;;;;;15.68;6.80;;;;;;;21.76;65.63;98828.88;5003435;28;20041;-77
2023/06/12 06:14:53;;;;;;;7.75;6.22;;;;;;;21.92;64.01;98839.63;4999246;28;20426;-77
2023/06/12 06:17:20;;;;;;;7.00;5.32;;;;;;;22.28;62.76;98836.25;4996015;28;20485;-77
2023/06/12 06:19:45;;;;;;;10.10;5.72;;;;;;;22.32;62.28;98833.34;4992456;28;20022;-77
2023/06/12 06:22:12;;;;;;;10.60;5.05;;;;;;;22.14;61.84;98835.25;4993297;28;20022;-76
2023/06/12 06:24:37;;;;;;;15.90;6.20;;;;;;;22.11;63.35;98835.28;5007110;28;20030;-77
2023/06/12 06:27:03;;;;;;;23.42;5.82;;;;;;;22.57;61.80;98842.34;5007030;28;20085;-75
2023/06/12 06:29:28;;;;;;;7.95;5.00;;;;;;;22.85;61.78;98843.06;4993091;28;20133;-73
2023/06/12 06:31:54;;;;;;;12.95;6.22;;;;;;;22.67;61.33;98842.56;4992222;28;20018;-76
2023/06/12 06:39:43;;;;;;;8.68;5.72;;;;;;;23.21;59.81;98841.59;5018471;28;20037;-76
2023/06/12 06:42:08;;;;;;;6.20;5.30;;;;;;;23.32;59.85;98838.56;5031868;28;20044;-75
2023/06/12 06:44:34;;;;;;;7.95;5.45;;;;;;;23.46;58.61;98830.97;5017016;28;20317;-75
2023/06/12 06:46:59;;;;;;;8.95;4.95;;;;;;;23.70;57.54;98829.63;5025135;28;20021;-75
2023/06/12 06:49:26;;;;;;;7.32;5.50;;;;;;;23.56;58.16;98844.19;5027386;28;20081;-75
2023/06/12 06:51:51;;;;;;;9.35;5.13;;;;;;;24.03;56.81;98840.34;5020281;28;20026;-75
2023/06/12 06:54:17;;;;;;;6.43;4.78;;;;;;;24.18;58.31;98843.69;5030522;28;20029;-74
2023/06/12 06:56:43;;;;;;;9.00;5.53;;;;;;;24.37;55.58;98829.75;5018006;28;20508;-75
2023/06/12 06:59:09;;;;;;;12.50;4.80;;;;;;;24.34;56.09;98834.34;5012357;28;20101;-73
2023/06/12 07:01:34;;;;;;;8.93;4.30;;;;;;;24.61;54.79;98827.56;5018891;28;20408;-74
2023/06/12 07:04:01;;;;;;;9.63;5.45;;;;;;;24.23;55.62;98825.22;5031694;28;20029;-74
2023/06/12 07:06:26;;;;;;;6.57;4.65;;;;;;;23.88;55.25;98834.13;5016991;28;20480;-71
2023/06/12 07:08:52;;;;;;;10.55;4.95;;;;;;;24.14;56.74;98822.16;5011737;28;20037;-73
2023/06/12 07:11:17;;;;;;;272.00;24.15;;;;;;;24.33;55.29;98820.50;5011691;28;20030;-74
2023/06/12 07:13:43;;;;;;;1102.15;113.43;;;;;;;24.68;54.42;98832.28;5010931;28;20029;-73
2023/06/12 07:16:08;;;;;;;11.57;4.85;;;;;;;23.91;57.22;98821.03;5011430;28;20033;-73
2023/06/12 07:18:34;;;;;;;16.17;5.05;;;;;;;24.07;56.40;98823.97;5013796;28;20518;-74
2023/06/12 07:20:59;;;;;;;10.20;4.82;;;;;;;24.58;57.24;98817.00;5026697;28;20068;-73
2023/06/12 07:23:25;;;;;;;9.68;4.25;;;;;;;24.83;56.44;98818.44;5012458;28;20109;-73
2023/06/12 07:25:50;;;;;;;8.18;5.50;;;;;;;24.72;55.12;98817.91;5010866;28;20410;-73
2023/06/12 07:28:16;;;;;;;19.63;6.78;;;;;;;24.73;55.69;98826.00;5025936;28;20152;-74
2023/06/12 07:30:41;;;;;;;8.30;5.10;;;;;;;24.55;54.49;98820.75;5016289;28;20029;-74
2023/06/12 07:33:07;;;;;;;10.10;5.75;;;;;;;24.52;54.64;98822.47;5011363;28;20029;-74
2023/06/12 07:35:32;;;;;;;7.43;4.57;;;;;;;24.34;55.15;98819.25;5011123;28;20053;-74
2023/06/12 07:37:58;;;;;;;7.00;4.53;;;;;;;24.35;55.13;98810.22;5019735;28;20392;-73
2023/06/12 07:40:24;;;;;;;9.35;4.65;;;;;;;25.03;55.56;98818.31;5031124;28;20029;-74
2023/06/12 07:42:49;;;;;;;12.10;5.00;;;;;;;25.31;54.35;98815.91;5018865;28;20107;-74
2023/06/12 07:45:15;;;;;;;8.93;4.07;;;;;;;25.48;53.75;98825.22;5026342;28;20022;-74
2023/06/12 07:47:40;;;;;;;10.75;4.75;;;;;;;25.71;52.49;98825.44;5025408;28;20030;-73
2023/06/12 07:50:06;;;;;;;8.02;4.60;;;;;;;25.08;52.46;98825.56;5022651;28;20112;-73
2023/06/12 07:52:32;;;;;;;14.25;5.57;;;;;;;25.58;52.01;98819.69;5019144;28;20171;-73
2023/06/12 07:54:57;;;;;;;7.68;4.93;;;;;;;26.07;51.73;98815.75;5021468;28;20033;-73
2023/06/12 07:57:23;;;;;;;8.15;4.35;;;;;;;26.14;50.83;98817.59;5021184;28;20034;-73
2023/06/12 07:59:48;;;;;;;5.82;4.43;;;;;;;26.15;49.44;98811.38;5018599;28;20022;-73
2023/06/12 08:02:14;;;;;;;7.68;5.15;;;;;;;26.47;48.78;98817.34;5010899;28;20026;-73
2023/06/12 08:04:41;;;;;;;11.93;5.30;;;;;;;26.34;51.01;98811.63;5009431;28;20045;-73
2023/06/12 08:07:10;;;;;;;8.43;5.35;;;;;;;26.54;50.65;98810.56;5010419;28;20411;-76
2023/06/12 08:09:38;;;;;;;6.22;3.40;;;;;;;26.62;47.63;98807.00;5012760;28;20051;-78
2023/06/12 08:12:04;;;;;;;9.73;5.22;;;;;;;26.55;46.73;98812.19;5009082;28;20112;-75
2023/06/12 08:14:29;;;;;;;5.78;4.00;;;;;;;26.55;48.21;98801.50;5009684;28;20478;-79
2023/06/12 08:16:55;;;;;;;9.88;4.65;;;;;;;27.10;48.88;98799.66;5025224;28;20030;-79
2023/06/12 08:19:20;;;;;;;13.32;4.95;;;;;;;27.19;47.71;98803.41;5029211;28;20061;-74
2023/06/12 08:21:46;;;;;;;7.03;4.50;;;;;;;26.49;47.48;98791.91;5016817;28;20480;-73
2023/06/12 08:24:14;;;;;;;16.58;4.63;;;;;;;27.19;47.99;98799.75;5010454;28;20504;-75
2023/06/12 08:26:39;;;;;;;9.90;4.55;;;;;;;27.38;46.22;98794.13;5013771;28;20026;-74
2023/06/12 08:29:05;;;;;;;7.70;4.85;;;;;;;27.51;44.68;98794.84;5016859;28;20040;-76
2023/06/12 08:31:33;;;;;;;5.03;4.35;;;;;;;27.54;44.66;98793.97;5016993;28;20064;-76
2023/06/12 08:33:58;;;;;;;15.00;5.25;;;;;;;27.48;43.06;98798.66;5016388;28;20030;-76
2023/06/12 08:36:25;;;;;;;9.90;3.92;;;;;;;27.57;42.83;98798.75;5032151;28;20405;-76
2023/06/12 08:38:50;;;;;;;9.40;4.05;;;;;;;27.48;42.62;98798.66;5017952;28;20069;-77
2023/06/12 08:41:18;;;;;;;10.95;4.35;;;;;;;27.37;44.01;98787.59;5015090;28;20048;-74
2023/06/12 08:43:45;;;;;;;9.77;4.93;;;;;;;27.45;42.03;98780.31;5016817;28;20140;-73
2023/06/12 08:46:12;;;;;;;6.18;4.22;;;;;;;27.30;43.00;98776.38;5015321;28;20026;-74
2023/06/12 08:48:37;;;;;;;8.40;5.32;;;;;;;27.49;43.39;98791.66;5025633;28;20514;-74
2023/06/12 08:51:05;;;;;;;5.80;4.40;;;;;;;27.52;43.39;98785.00;5033716;28;20021;-74
2023/06/12 08:53:30;;;;;;;9.95;4.65;;;;;;;27.58;42.38;98782.34;5032909;28;20033;-74
2023/06/12 08:55:57;;;;;;;8.93;4.07;;;;;;;27.77;42.39;98776.69;5032361;28;20372;-74
2023/06/12 08:58:22;;;;;;;13.23;5.53;;;;;;;28.15;42.83;98775.56;5033515;28;20022;-74
2023/06/12 09:00:49;;;;;;;8.25;4.80;;;;;;;28.20;42.01;98775.00;5033303;28;20028;-74
2023/06/12 09:03:15;;;;;;;10.38;5.53;;;;;;;28.25;42.43;98764.94;5026218;28;20091;-75
2023/06/12 09:05:41;;;;;;;10.18;5.72;;;;;;;28.27;43.29;98765.28;5031861;28;20100;-74
2023/06/12 09:08:07;;;;;;;8.73;5.68;;;;;;;28.27;42.17;98765.28;5031300;28;20064;-74
2023/06/12 09:10:34;;;;;;;11.63;6.78;;;;;;;28.03;42.55;98766.59;5032187;28;20483;-74
2023/06/12 09:13:01;;;;;;;14.45;6.75;;;;;;;28.15;41.97;98772.69;5021834;28;20104;-74
2023/06/12 09:15:27;;;;;;;5.43;4.35;;;;;;;28.11;41.94;98772.84;5029088;28;20025;-74
2023/06/12 09:17:54;;;;;;;10.50;4.75;;;;;;;28.12;41.31;98765.84;5031174;28;20388;-75
2023/06/12 09:20:28;;;;;;;6.00;4.95;;;;;;;28.13;42.15;98755.94;5032779;28;20048;-74
2023/06/12 09:22:55;;;;;;;6.78;4.90;;;;;;;28.35;42.19;98749.31;5032586;28;20029;-74
2023/06/12 09:25:26;;;;;;;8.23;5.00;;;;;;;28.47;41.13;98749.66;5033031;28;20063;-74
2023/06/12 09:27:51;;;;;;;7.72;5.00;;;;;;;28.50;39.73;98745.84;5014985;28;20013;-75
2023/06/12 09:30:16;;;;;;;10.25;3.90;;;;;;;28.50;40.15;98757.34;5029166;28;20029;-75
2023/06/12 09:32:44;;;;;;;5.25;3.70;;;;;;;28.19;39.67;98750.41;5022739;28;20029;-75
2023/06/12 09:35:11;;;;;;;9.57;4.38;;;;;;;28.41;39.72;98750.28;5030931;28;20419;-75
2023/06/12 09:37:39;;;;;;;8.77;4.50;;;;;;;28.91;40.48;98752.28;5032436;28;20030;-75
2023/06/12 09:40:14;;;;;;;12.20;6.15;;;;;;;29.19;37.19;98739.97;5018424;28;20034;-75
2023/06/12 09:42:41;;;;;;;6.90;4.15;;;;;;;29.41;37.75;98740.56;5031713;28;20032;-75
2023/06/12 09:45:18;;;;;;;8.48;4.20;;;;;;;29.21;38.57;98735.34;5029783;28;20502;-75
2023/06/12 09:47:48;;;;;;;11.98;3.78;;;;;;;28.99;37.98;98727.66;5031553;28;20507;-75
2023/06/12 09:50:15;;;;;;;6.43;4.15;;;;;;;28.62;38.10;98735.47;5032631;28;20472;-74
2023/06/12 09:52:42;;;;;;;7.60;4.00;;;;;;;28.55;38.76;98723.00;5032307;28;20104;-74
2023/06/12 09:55:11;;;;;;;17.00;5.03;;;;;;;28.84;38.61;98729.56;5020791;28;20037;-74
2023/06/12 09:57:38;;;;;;;8.73;4.57;;;;;;;28.99;38.63;98724.78;5030925;28;20035;-75
2023/06/12 10:00:07;;;;;;;6.75;3.80;;;;;;;29.05;36.66;98721.25;5031298;28;20105;-75
2023/06/12 10:02:35;;;;;;;8.43;4.90;;;;;;;29.38;37.39;98727.16;5026484;28;20030;-75
2023/06/12 10:05:05;;;;;;;5.50;4.20;;;;;;;29.38;37.39;98714.81;5031236;28;20416;-75
2023/06/12 10:07:48;;;;;;;8.65;3.75;;;;;;;29.78;37.09;98719.50;5030866;28;20036;-75
2023/06/12 10:10:15;;;;;;;6.97;4.03;;;;;;;29.59;37.17;98723.75;5016266;28;20087;-76
2023/06/12 10:12:42;;;;;;;8.65;4.25;;;;;;;29.52;37.24;98719.91;5019405;28;20033;-76
2023/06/12 10:15:08;;;;;;;9.38;4.15;;;;;;;29.54;37.04;98716.56;5029476;28;20040;-76
2023/06/12 10:17:34;;;;;;;5.93;4.15;;;;;;;29.63;37.29;98719.41;5025221;28;20029;-74
2023/06/12 10:20:05;;;;;;;13.70;5.57;;;;;;;29.41;37.69;98714.66;5023848;28;20458;-75
2023/06/12 10:22:30;;;;;;;5.97;4.82;;;;;;;28.97;39.16;98715.84;5017888;28;20108;-76
2023/06/12 10:24:57;;;;;;;7.03;4.20;;;;;;;28.63;40.15;98711.97;5024369;28;20095;-77
2023/06/12 10:27:23;;;;;;;9.60;4.65;;;;;;;28.49;40.33;98707.66;5028196;28;20029;-74
2023/06/12 10:29:59;;;;;;;10.90;5.47;;;;;;;28.21;40.46;98703.91;5031685;28;20109;-73
2023/06/12 10:32:31;;;;;;;9.73;5.95;;;;;;;28.34;40.81;98704.59;5013658;28;20034;-72
2023/06/12 10:34:56;;;;;;;9.80;5.03;;;;;;;27.97;41.02;98688.03;5025030;28;20028;-72
2023/06/12 10:37:32;;;;;;;10.93;5.55;;;;;;;28.08;41.38;98689.66;5018675;28;20026;-73
2023/06/12 10:40:19;;;;;;;5.97;4.38;;;;;;;27.95;41.18;98684.84;5025527;28;20025;-73
2023/06/12 10:42:53;;;;;;;9.00;4.93;;;;;;;27.98;41.14;98694.56;5012925;28;20378;-73
2023/06/12 10:45:23;;;;;;;11.77;5.10;;;;;;;27.97;41.56;98695.84;5024534;28;20057;-71
2023/06/12 10:48:03;;;;;;;7.85;4.88;;;;;;;28.05;41.72;98694.28;5010170;28;20415;-74
2023/06/12 10:50:37;;;;;;;8.35;4.93;;;;;;;28.39;40.65;98683.84;5017001;28;20467;-73
2023/06/12 10:53:20;;;;;;;5.57;4.18;;;;;;;28.77;40.36;98686.72;5015753;28;20149;-72
2023/06/12 10:55:46;;;;;;;8.43;4.95;;;;;;;28.89;38.85;98677.16;5028306;28;20029;-75
2023/06/12 10:58:25;;;;;;;5.53;4.25;;;;;;;29.04;39.39;98685.13;5017275;28;20626;-75
2023/06/12 11:00:52;;;;;;;8.67;4.20;;;;;;;29.21;39.39;98680.63;5014437;28;20022;-76
2023/06/12 11:03:21;;;;;;;9.73;4.10;;;;;;;29.47;38.56;98686.03;5016211;28;20090;-75
2023/06/12 11:05:54;;;;;;;11.32;4.53;;;;;;;29.56;38.28;98679.44;5017443;28;20033;-76
2023/06/12 11:08:20;;;;;;;11.38;5.18;;;;;;;29.51;37.50;98678.00;5011666;28;20046;-76
2023/06/12 11:10:50;;;;;;;9.68;4.47;;;;;;;29.40;38.21;98675.63;5021137;28;20036;-75
2023/06/12 11:13:16;;;;;;;8.25;4.78;;;;;;;28.81;38.94;98670.09;5024766;28;20405;-76
2023/06/12 11:15:47;;;;;;;15.57;5.13;;;;;;;28.84;38.80;98666.28;5019557;28;20032;-75
2023/06/12 11:18:14;;;;;;;8.13;5.22;;;;;;;28.77;39.63;98672.34;5019911;28;20067;-75
2023/06/12 11:20:40;;;;;;;10.40;5.18;;;;;;;28.41;40.48;98664.03;5018178;28;20139;-75
2023/06/12 11:23:06;;;;;;;7.03;4.45;;;;;;;28.40;39.49;98655.88;5027577;28;20451;-75
2023/06/12 11:25:42;;;;;;;9.52;5.20;;;;;;;28.40;39.54;98673.13;5014209;28;20033;-75
2023/06/12 11:28:08;;;;;;;9.25;4.18;;;;;;;28.33;40.54;98662.75;5018019;28;20033;-75
2023/06/12 11:30:33;;;;;;;6.32;4.50;;;;;;;28.29;40.51;98648.50;5023252;28;20048;-75
2023/06/12 11:33:14;;;;;;;19.45;5.47;;;;;;;28.59;40.05;98651.72;5017632;28;20026;-75
2023/06/12 11:35:45;;;;;;;7.28;5.82;;;;;;;28.42;40.49;98650.47;5020530;28;20480;-75